createdAt,value
2022-08-14T00:03:35.113Z,23.40
2022-08-14T00:13:37.396Z,23.40
2022-08-14T00:23:39.193Z,23.20
2022-08-14T00:33:52.001Z,23.20
2022-08-14T00:43:57.235Z,23.20
2022-08-14T00:54:01.012Z,23.10
2022-08-14T01:04:05.647Z,23.00
2022-08-14T01:14:25.472Z,22.80
2022-08-14T01:24:34.589Z,22.90
2022-08-14T01:35:19.271Z,22.80
2022-08-14T01:45:00.849Z,22.70
2022-08-14T01:55:04.876Z,22.50
2022-08-14T02:05:10.833Z,22.40
2022-08-14T02:15:13.990Z,22.50
2022-08-14T02:25:17.967Z,22.40
2022-08-14T02:35:22.087Z,22.40
2022-08-14T02:45:38.911Z,22.30
2022-08-14T02:55:48.508Z,22.00
2022-08-14T03:05:54.409Z,22.00
2022-08-14T03:15:59.067Z,21.90
2022-08-14T03:26:02.269Z,21.40
2022-08-14T03:37:51.952Z,21.20
2022-08-14T03:46:52.102Z,21.10
2022-08-14T03:56:56.966Z,21.00
2022-08-14T04:06:59.273Z,20.90
2022-08-14T04:17:02.370Z,20.50
2022-08-14T04:27:04.770Z,20.50
2022-08-14T04:37:37.991Z,20.40
2022-08-14T04:48:00.931Z,20.30
2022-08-14T04:58:02.588Z,20.10
2022-08-14T05:08:11.149Z,20.00
2022-08-14T05:19:25.002Z,20.10
2022-08-14T05:29:01.555Z,20.30
2022-08-14T05:39:03.647Z,20.30
2022-08-14T05:49:07.769Z,20.40
2022-08-14T05:59:30.181Z,20.60
2022-08-14T06:09:42.429Z,20.90
2022-08-14T06:19:44.350Z,21.20
2022-08-14T06:29:46.688Z,21.10
2022-08-14T06:39:48.991Z,21.20
2022-08-14T06:49:57.926Z,21.50
2022-08-14T07:00:00.908Z,21.70
2022-08-14T07:10:02.927Z,22.20
2022-08-14T07:20:05.277Z,23.00
2022-08-14T07:30:33.906Z,24.00
2022-08-14T07:40:33.609Z,25.00
2022-08-14T07:50:38.467Z,26.00
2022-08-14T08:00:42.707Z,26.40
2022-08-14T08:11:02.181Z,26.90
2022-08-14T08:21:06.109Z,27.40
2022-08-14T08:31:09.309Z,27.70
2022-08-14T08:41:21.308Z,28.00
2022-08-14T08:51:43.766Z,28.60
2022-08-14T09:01:57.679Z,29.00
2022-08-14T09:12:01.933Z,29.60
2022-08-14T09:22:35.052Z,30.20
2022-08-14T09:32:59.105Z,30.20
2022-08-14T09:43:23.450Z,30.70
2022-08-14T09:54:19.585Z,31.20
2022-08-14T10:04:34.911Z,31.70
2022-08-14T10:14:43.231Z,32.00
2022-08-14T10:24:57.299Z,31.60
2022-08-14T10:35:14.788Z,32.20
2022-08-14T10:45:28.470Z,32.70
2022-08-14T10:55:45.128Z,33.20
2022-08-14T11:05:55.675Z,33.50
2022-08-14T11:16:07.019Z,33.80
2022-08-14T11:26:11.071Z,34.50
2022-08-14T11:36:18.179Z,34.40
2022-08-14T11:46:30.795Z,34.60
2022-08-14T11:56:49.411Z,35.00
2022-08-14T12:07:02.504Z,35.00
2022-08-14T12:17:13.163Z,35.40
2022-08-14T12:27:18.497Z,35.30
2022-08-14T12:37:34.470Z,36.20
2022-08-14T12:47:37.411Z,36.40
2022-08-14T12:57:49.348Z,36.00
2022-08-14T13:07:57.380Z,36.60
2022-08-14T13:18:06.855Z,36.30
2022-08-14T13:28:11.228Z,36.90
2022-08-14T13:38:13.456Z,36.70
2022-08-14T13:48:27.463Z,37.20
2022-08-14T13:58:39.574Z,35.60
2022-08-14T14:08:59.074Z,36.90
2022-08-14T14:19:09.760Z,35.60
2022-08-14T14:29:16.071Z,35.60
2022-08-14T14:39:28.865Z,35.50
2022-08-14T14:49:51.293Z,35.10
2022-08-14T15:00:00.573Z,35.00
2022-08-14T15:10:03.923Z,34.80
2022-08-14T15:20:17.300Z,34.70
2022-08-14T15:30:23.732Z,34.60
2022-08-14T15:40:27.531Z,33.90
2022-08-14T15:50:30.392Z,33.50
2022-08-14T16:00:52.471Z,33.50
2022-08-14T16:10:54.968Z,33.10
2022-08-14T16:21:01.290Z,32.80
2022-08-14T16:31:05.067Z,32.70
2022-08-14T16:41:25.791Z,32.70
2022-08-14T16:51:30.547Z,32.50
2022-08-14T17:01:42.119Z,32.40
2022-08-14T17:11:56.073Z,32.10
2022-08-14T17:21:59.191Z,31.50
2022-08-14T17:43:01.879Z,30.70
2022-08-14T17:53:05.949Z,30.30
2022-08-14T18:03:18.531Z,29.90
2022-08-14T18:13:51.438Z,29.50
2022-08-14T18:23:57.358Z,28.90
2022-08-14T18:34:11.805Z,28.50
2022-08-14T18:44:13.831Z,28.00
2022-08-14T18:54:33.202Z,27.70
2022-08-14T19:04:41.816Z,27.30
2022-08-14T19:14:50.492Z,26.90
2022-08-14T19:24:52.885Z,26.60
2022-08-14T19:34:59.840Z,26.40
2022-08-14T19:45:07.207Z,26.00
2022-08-14T19:55:34.066Z,25.70
2022-08-14T20:05:45.909Z,25.60
2022-08-14T20:15:50.249Z,25.30
2022-08-14T20:25:56.525Z,25.00
2022-08-14T20:36:02.748Z,24.80
2022-08-14T20:46:32.468Z,24.80
2022-08-14T20:56:46.490Z,24.60
2022-08-14T21:07:25.776Z,24.70
2022-08-14T21:17:12.391Z,24.70
2022-08-14T21:27:22.055Z,24.70
2022-08-14T21:37:29.762Z,24.60
2022-08-14T21:47:33.769Z,24.60
2022-08-14T21:57:56.288Z,24.50
2022-08-14T22:08:12.529Z,24.40
2022-08-14T22:18:20.541Z,24.30
2022-08-14T22:28:32.412Z,24.30
2022-08-14T22:38:38.886Z,24.40
2022-08-14T22:48:52.890Z,24.40
2022-08-14T22:58:56.890Z,24.40
2022-08-14T23:09:34.992Z,24.50
2022-08-14T23:19:34.702Z,24.60
2022-08-14T23:29:40.011Z,24.70
2022-08-14T23:39:41.429Z,24.60
2022-08-14T23:49:56.438Z,24.60
